sensor_id;sensor_type;location;lat;lon;timestamp;temperature;humidity
7204;DHT22;3643;52.460;13.322;2023-09-18T00:00:51;18.90;99.90
7204;DHT22;3643;52.460;13.322;2023-09-18T00:03:20;18.90;99.90
7204;DHT22;3643;52.460;13.322;2023-09-18T00:05:52;18.90;99.90
7204;DHT22;3643;52.460;13.322;2023-09-18T00:08:21;18.80;99.90
7204;DHT22;3643;52.460;13.322;2023-09-18T00:10:53;18.80;99.90
7204;DHT22;3643;52.460;13.322;2023-09-18T00:13:22;18.80;99.90
7204;DHT22;3643;52.460;13.322;2023-09-18T00:15:54;18.70;99.90
7204;DHT22;3643;52.460;13.322;2023-09-18T00:18:22;18.70;99.90
7204;DHT22;3643;52.460;13.322;2023-09-18T00:20:51;18.70;99.90
7204;DHT22;3643;52.460;13.322;2023-09-18T00:23:21;18.70;99.90
7204;DHT22;3643;52.460;13.322;2023-09-18T00:25:50;18.70;99.90
7204;DHT22;3643;52.460;13.322;2023-09-18T00:28:18;18.60;99.90
7204;DHT22;3643;52.460;13.322;2023-09-18T00:30:48;18.60;99.90
7204;DHT22;3643;52.460;13.322;2023-09-18T00:33:17;18.60;99.90
7204;DHT22;3643;52.460;13.322;2023-09-18T00:35:47;18.60;99.90
7204;DHT22;3643;52.460;13.322;2023-09-18T00:38:15;18.60;99.90
7204;DHT22;3643;52.460;13.322;2023-09-18T00:40:44;18.40;99.90
7204;DHT22;3643;52.460;13.322;2023-09-18T00:43:13;18.60;99.90
7204;DHT22;3643;52.460;13.322;2023-09-18T00:45:44;18.60;99.90
7204;DHT22;3643;52.460;13.322;2023-09-18T00:48:13;18.60;99.90
7204;DHT22;3643;52.460;13.322;2023-09-18T00:50:43;18.60;99.90
7204;DHT22;3643;52.460;13.322;2023-09-18T00:53:14;18.60;99.90
7204;DHT22;3643;52.460;13.322;2023-09-18T00:55:42;18.60;99.90
7204;DHT22;3643;52.460;13.322;2023-09-18T00:58:13;18.50;99.90
7204;DHT22;3643;52.460;13.322;2023-09-18T01:00:41;18.50;99.90
7204;DHT22;3643;52.460;13.322;2023-09-18T01:03:09;18.50;99.90
7204;DHT22;3643;52.460;13.322;2023-09-18T01:05:38;18.50;99.90
7204;DHT22;3643;52.460;13.322;2023-09-18T01:08:06;18.50;99.90
7204;DHT22;3643;52.460;13.322;2023-09-18T01:10:40;18.50;99.90
7204;DHT22;3643;52.460;13.322;2023-09-18T01:13:21;18.40;99.90
7204;DHT22;3643;52.460;13.322;2023-09-18T01:15:54;18.40;99.90
7204;DHT22;3643;52.460;13.322;2023-09-18T01:18:25;18.30;99.90
7204;DHT22;3643;52.460;13.322;2023-09-18T01:20:53;18.30;99.90
7204;DHT22;3643;52.460;13.322;2023-09-18T01:23:23;18.20;99.90
7204;DHT22;3643;52.460;13.322;2023-09-18T01:25:51;18.20;99.90
7204;DHT22;3643;52.460;13.322;2023-09-18T01:28:19;18.20;99.90
7204;DHT22;3643;52.460;13.322;2023-09-18T01:30:47;18.10;99.90
7204;DHT22;3643;52.460;13.322;2023-09-18T01:33:16;18.10;99.90
7204;DHT22;3643;52.460;13.322;2023-09-18T01:35:45;18.10;99.90
7204;DHT22;3643;52.460;13.322;2023-09-18T01:38:14;18.10;99.90
7204;DHT22;3643;52.460;13.322;2023-09-18T01:40:44;18.00;99.90
7204;DHT22;3643;52.460;13.322;2023-09-18T01:43:12;18.00;99.90
7204;DHT22;3643;52.460;13.322;2023-09-18T01:45:40;18.00;99.90
7204;DHT22;3643;52.460;13.322;2023-09-18T01:48:09;17.90;99.90
7204;DHT22;3643;52.460;13.322;2023-09-18T01:50:37;17.90;99.90
7204;DHT22;3643;52.460;13.322;2023-09-18T01:53:06;17.90;99.90
7204;DHT22;3643;52.460;13.322;2023-09-18T01:55:35;17.80;99.90
7204;DHT22;3643;52.460;13.322;2023-09-18T01:58:05;17.90;99.90
7204;DHT22;3643;52.460;13.322;2023-09-18T02:00:34;17.80;99.90
7204;DHT22;3643;52.460;13.322;2023-09-18T02:03:03;17.80;99.90
7204;DHT22;3643;52.460;13.322;2023-09-18T02:05:51;17.80;99.90
7204;DHT22;3643;52.460;13.322;2023-09-18T02:08:19;17.70;99.90
7204;DHT22;3643;52.460;13.322;2023-09-18T02:10:48;17.70;99.90
7204;DHT22;3643;52.460;13.322;2023-09-18T02:13:17;17.70;99.90
7204;DHT22;3643;52.460;13.322;2023-09-18T02:15:45;17.60;99.90
7204;DHT22;3643;52.460;13.322;2023-09-18T02:18:13;17.60;99.90
7204;DHT22;3643;52.460;13.322;2023-09-18T02:20:42;17.60;99.90
7204;DHT22;3643;52.460;13.322;2023-09-18T02:23:14;17.50;99.90
7204;DHT22;3643;52.460;13.322;2023-09-18T02:25:42;17.50;99.90
7204;DHT22;3643;52.460;13.322;2023-09-18T02:28:10;17.50;99.90
7204;DHT22;3643;52.460;13.322;2023-09-18T02:30:40;17.50;99.90
7204;DHT22;3643;52.460;13.322;2023-09-18T02:33:08;17.50;99.90
7204;DHT22;3643;52.460;13.322;2023-09-18T02:35:37;17.40;99.90
7204;DHT22;3643;52.460;13.322;2023-09-18T02:38:05;17.40;99.90
7204;DHT22;3643;52.460;13.322;2023-09-18T02:40:33;17.40;99.90
7204;DHT22;3643;52.460;13.322;2023-09-18T02:43:01;17.40;99.90
7204;DHT22;3643;52.460;13.322;2023-09-18T02:45:29;17.30;99.90
7204;DHT22;3643;52.460;13.322;2023-09-18T02:47:59;17.30;99.90
7204;DHT22;3643;52.460;13.322;2023-09-18T02:50:27;17.30;99.90
7204;DHT22;3643;52.460;13.322;2023-09-18T02:52:55;17.30;99.90
7204;DHT22;3643;52.460;13.322;2023-09-18T02:55:23;17.30;99.90
7204;DHT22;3643;52.460;13.322;2023-09-18T02:57:51;17.20;99.90
7204;DHT22;3643;52.460;13.322;2023-09-18T03:00:20;17.20;99.90
7204;DHT22;3643;52.460;13.322;2023-09-18T03:03:10;17.20;99.90
7204;DHT22;3643;52.460;13.322;2023-09-18T03:05:39;17.20;99.90
7204;DHT22;3643;52.460;13.322;2023-09-18T03:08:08;17.10;99.90
7204;DHT22;3643;52.460;13.322;2023-09-18T03:10:38;17.10;99.90
7204;DHT22;3643;52.460;13.322;2023-09-18T03:13:08;17.10;99.90
7204;DHT22;3643;52.460;13.322;2023-09-18T03:15:36;17.10;99.90
7204;DHT22;3643;52.460;13.322;2023-09-18T03:18:06;17.10;99.90
7204;DHT22;3643;52.460;13.322;2023-09-18T03:20:36;17.10;99.90
7204;DHT22;3643;52.460;13.322;2023-09-18T03:23:04;17.10;99.90
7204;DHT22;3643;52.460;13.322;2023-09-18T03:25:32;17.00;99.90
7204;DHT22;3643;52.460;13.322;2023-09-18T03:28:17;17.00;99.90
7204;DHT22;3643;52.460;13.322;2023-09-18T03:30:46;17.00;99.90
7204;DHT22;3643;52.460;13.322;2023-09-18T03:33:14;17.00;99.90
7204;DHT22;3643;52.460;13.322;2023-09-18T03:35:47;17.00;99.90
7204;DHT22;3643;52.460;13.322;2023-09-18T03:38:16;17.00;99.90
7204;DHT22;3643;52.460;13.322;2023-09-18T03:40:45;16.90;99.90
7204;DHT22;3643;52.460;13.322;2023-09-18T03:43:13;16.90;99.90
7204;DHT22;3643;52.460;13.322;2023-09-18T03:45:42;16.90;99.90
7204;DHT22;3643;52.460;13.322;2023-09-18T03:48:10;16.90;99.90
7204;DHT22;3643;52.460;13.322;2023-09-18T03:50:38;16.60;99.90
7204;DHT22;3643;52.460;13.322;2023-09-18T03:53:09;16.90;99.90
7204;DHT22;3643;52.460;13.322;2023-09-18T03:55:37;16.80;99.90
7204;DHT22;3643;52.460;13.322;2023-09-18T03:58:05;16.80;99.90
7204;DHT22;3643;52.460;13.322;2023-09-18T04:00:33;16.80;99.90
7204;DHT22;3643;52.460;13.322;2023-09-18T04:03:01;16.70;99.90
7204;DHT22;3643;52.460;13.322;2023-09-18T04:05:30;16.70;99.90
7204;DHT22;3643;52.460;13.322;2023-09-18T04:07:58;16.70;99.90
7204;DHT22;3643;52.460;13.322;2023-09-18T04:10:27;16.70;99.90
7204;DHT22;3643;52.460;13.322;2023-09-18T04:12:55;16.70;99.90
7204;DHT22;3643;52.460;13.322;2023-09-18T04:15:23;16.60;99.90
7204;DHT22;3643;52.460;13.322;2023-09-18T04:17:52;16.60;99.90
7204;DHT22;3643;52.460;13.322;2023-09-18T04:20:20;16.60;99.90
7204;DHT22;3643;52.460;13.322;2023-09-18T04:23:19;16.60;99.90
7204;DHT22;3643;52.460;13.322;2023-09-18T04:25:51;16.60;99.90
7204;DHT22;3643;52.460;13.322;2023-09-18T04:28:21;16.60;99.90
7204;DHT22;3643;52.460;13.322;2023-09-18T04:30:50;16.60;99.90
7204;DHT22;3643;52.460;13.322;2023-09-18T04:33:18;16.60;99.90
7204;DHT22;3643;52.460;13.322;2023-09-18T04:35:48;16.60;99.90
7204;DHT22;3643;52.460;13.322;2023-09-18T04:38:16;16.60;99.90
7204;DHT22;3643;52.460;13.322;2023-09-18T04:40:46;16.50;99.90
7204;DHT22;3643;52.460;13.322;2023-09-18T04:43:16;16.50;99.90
7204;DHT22;3643;52.460;13.322;2023-09-18T04:45:44;16.50;99.90
7204;DHT22;3643;52.460;13.322;2023-09-18T04:48:12;16.50;99.90
7204;DHT22;3643;52.460;13.322;2023-09-18T04:50:40;16.50;99.90
7204;DHT22;3643;52.460;13.322;2023-09-18T04:53:09;16.50;99.90
7204;DHT22;3643;52.460;13.322;2023-09-18T04:55:37;16.50;99.90
7204;DHT22;3643;52.460;13.322;2023-09-18T04:58:06;16.50;99.90
7204;DHT22;3643;52.460;13.322;2023-09-18T05:00:35;16.50;99.90
7204;DHT22;3643;52.460;13.322;2023-09-18T05:03:04;16.60;99.90
7204;DHT22;3643;52.460;13.322;2023-09-18T05:05:33;16.60;99.90
7204;DHT22;3643;52.460;13.322;2023-09-18T05:08:02;16.60;99.90
7204;DHT22;3643;52.460;13.322;2023-09-18T05:10:31;16.60;99.90
7204;DHT22;3643;52.460;13.322;2023-09-18T05:13:00;16.70;99.90
7204;DHT22;3643;52.460;13.322;2023-09-18T05:15:28;16.70;99.90
7204;DHT22;3643;52.460;13.322;2023-09-18T05:17:59;16.70;99.90
7204;DHT22;3643;52.460;13.322;2023-09-18T05:20:29;16.80;99.90
7204;DHT22;3643;52.460;13.322;2023-09-18T05:22:58;16.80;99.90
7204;DHT22;3643;52.460;13.322;2023-09-18T05:25:29;16.90;99.90
7204;DHT22;3643;52.460;13.322;2023-09-18T05:28:00;17.00;99.90
7204;DHT22;3643;52.460;13.322;2023-09-18T05:30:29;17.10;99.90
7204;DHT22;3643;52.460;13.322;2023-09-18T05:33:02;17.10;99.90
7204;DHT22;3643;52.460;13.322;2023-09-18T05:35:32;17.30;99.90
7204;DHT22;3643;52.460;13.322;2023-09-18T05:38:00;17.30;99.90
7204;DHT22;3643;52.460;13.322;2023-09-18T05:40:28;17.40;99.90
7204;DHT22;3643;52.460;13.322;2023-09-18T05:42:57;17.60;99.90
7204;DHT22;3643;52.460;13.322;2023-09-18T05:45:25;17.70;99.90
7204;DHT22;3643;52.460;13.322;2023-09-18T05:47:54;17.90;99.90
7204;DHT22;3643;52.460;13.322;2023-09-18T05:50:33;18.10;99.90
7204;DHT22;3643;52.460;13.322;2023-09-18T05:53:03;18.30;99.90
7204;DHT22;3643;52.460;13.322;2023-09-18T05:55:32;18.50;99.90
7204;DHT22;3643;52.460;13.322;2023-09-18T05:58:00;19.00;99.90
7204;DHT22;3643;52.460;13.322;2023-09-18T06:00:30;19.50;99.90
7204;DHT22;3643;52.460;13.322;2023-09-18T06:02:59;20.00;99.90
7204;DHT22;3643;52.460;13.322;2023-09-18T06:05:28;20.50;99.90
7204;DHT22;3643;52.460;13.322;2023-09-18T06:08:00;21.10;99.90
7204;DHT22;3643;52.460;13.322;2023-09-18T06:10:28;21.60;99.90
7204;DHT22;3643;52.460;13.322;2023-09-18T06:12:56;21.70;99.90
7204;DHT22;3643;52.460;13.322;2023-09-18T06:15:25;21.90;99.90
7204;DHT22;3643;52.460;13.322;2023-09-18T06:17:53;22.40;99.90
7204;DHT22;3643;52.460;13.322;2023-09-18T06:20:21;22.60;99.90
7204;DHT22;3643;52.460;13.322;2023-09-18T06:22:49;23.00;99.90
7204;DHT22;3643;52.460;13.322;2023-09-18T06:25:19;23.50;99.90
7204;DHT22;3643;52.460;13.322;2023-09-18T06:27:47;24.00;99.90
7204;DHT22;3643;52.460;13.322;2023-09-18T06:30:15;24.80;99.90
7204;DHT22;3643;52.460;13.322;2023-09-18T06:32:43;25.60;99.90
7204;DHT22;3643;52.460;13.322;2023-09-18T06:35:12;26.10;99.90
7204;DHT22;3643;52.460;13.322;2023-09-18T06:37:40;26.10;99.90
7204;DHT22;3643;52.460;13.322;2023-09-18T06:40:09;26.40;99.90
7204;DHT22;3643;52.460;13.322;2023-09-18T06:42:38;26.30;99.90
7204;DHT22;3643;52.460;13.322;2023-09-18T06:45:07;26.30;99.90
7204;DHT22;3643;52.460;13.322;2023-09-18T06:47:35;27.20;99.90
7204;DHT22;3643;52.460;13.322;2023-09-18T06:50:04;27.60;99.90
7204;DHT22;3643;52.460;13.322;2023-09-18T06:52:33;27.70;99.90
7204;DHT22;3643;52.460;13.322;2023-09-18T06:55:01;27.80;99.90
7204;DHT22;3643;52.460;13.322;2023-09-18T06:57:29;28.10;99.90
7204;DHT22;3643;52.460;13.322;2023-09-18T06:59:58;28.80;99.90
7204;DHT22;3643;52.460;13.322;2023-09-18T07:02:26;29.60;99.90
7204;DHT22;3643;52.460;13.322;2023-09-18T07:04:55;30.60;99.90
7204;DHT22;3643;52.460;13.322;2023-09-18T07:07:23;31.80;99.90
7204;DHT22;3643;52.460;13.322;2023-09-18T07:09:52;32.40;98.90
7204;DHT22;3643;52.460;13.322;2023-09-18T07:12:30;32.60;98.00
7204;DHT22;3643;52.460;13.322;2023-09-18T07:15:00;32.50;97.40
7204;DHT22;3643;52.460;13.322;2023-09-18T07:17:31;31.60;98.40
7204;DHT22;3643;52.460;13.322;2023-09-18T07:19:59;32.00;97.60
7204;DHT22;3643;52.460;13.322;2023-09-18T07:22:28;31.90;98.40
7204;DHT22;3643;52.460;13.322;2023-09-18T07:24:57;32.70;97.80
7204;DHT22;3643;52.460;13.322;2023-09-18T07:27:25;32.30;97.00
7204;DHT22;3643;52.460;13.322;2023-09-18T07:29:55;32.10;97.30
7204;DHT22;3643;52.460;13.322;2023-09-18T07:32:25;32.60;97.80
7204;DHT22;3643;52.460;13.322;2023-09-18T07:35:06;33.30;97.30
7204;DHT22;3643;52.460;13.322;2023-09-18T07:37:34;33.50;96.10
7204;DHT22;3643;52.460;13.322;2023-09-18T07:40:04;33.60;96.10
7204;DHT22;3643;52.460;13.322;2023-09-18T07:42:32;33.30;95.90
7204;DHT22;3643;52.460;13.322;2023-09-18T07:45:00;32.40;96.40
7204;DHT22;3643;52.460;13.322;2023-09-18T07:47:30;30.60;97.60
7204;DHT22;3643;52.460;13.322;2023-09-18T07:49:59;29.10;99.40
7204;DHT22;3643;52.460;13.322;2023-09-18T07:52:28;28.20;99.80
7204;DHT22;3643;52.460;13.322;2023-09-18T07:54:56;27.30;99.90
7204;DHT22;3643;52.460;13.322;2023-09-18T07:57:25;26.50;99.90
7204;DHT22;3643;52.460;13.322;2023-09-18T07:59:55;25.80;99.90
7204;DHT22;3643;52.460;13.322;2023-09-18T08:02:23;25.40;99.90
7204;DHT22;3643;52.460;13.322;2023-09-18T08:04:53;25.10;99.90
7204;DHT22;3643;52.460;13.322;2023-09-18T08:07:21;24.80;99.90
7204;DHT22;3643;52.460;13.322;2023-09-18T08:09:49;24.60;99.90
7204;DHT22;3643;52.460;13.322;2023-09-18T08:12:17;24.50;99.90
7204;DHT22;3643;52.460;13.322;2023-09-18T08:14:46;24.30;99.90
7204;DHT22;3643;52.460;13.322;2023-09-18T08:17:16;24.30;99.90
7204;DHT22;3643;52.460;13.322;2023-09-18T08:19:44;24.10;99.90
7204;DHT22;3643;52.460;13.322;2023-09-18T08:22:13;24.20;99.90
7204;DHT22;3643;52.460;13.322;2023-09-18T08:24:43;24.10;99.90
7204;DHT22;3643;52.460;13.322;2023-09-18T08:27:14;24.10;99.90
7204;DHT22;3643;52.460;13.322;2023-09-18T08:29:43;24.10;99.90
7204;DHT22;3643;52.460;13.322;2023-09-18T08:32:11;24.10;99.90
7204;DHT22;3643;52.460;13.322;2023-09-18T08:34:40;24.10;99.90
7204;DHT22;3643;52.460;13.322;2023-09-18T08:37:08;24.20;99.90
7204;DHT22;3643;52.460;13.322;2023-09-18T08:39:38;24.10;99.90
7204;DHT22;3643;52.460;13.322;2023-09-18T08:42:07;24.20;99.90
7204;DHT22;3643;52.460;13.322;2023-09-18T08:44:38;24.30;99.90
7204;DHT22;3643;52.460;13.322;2023-09-18T08:47:08;24.50;99.90
7204;DHT22;3643;52.460;13.322;2023-09-18T08:49:39;24.60;99.90
7204;DHT22;3643;52.460;13.322;2023-09-18T08:52:09;24.70;99.90
7204;DHT22;3643;52.460;13.322;2023-09-18T08:54:38;24.70;99.90
7204;DHT22;3643;52.460;13.322;2023-09-18T08:57:07;24.80;99.90
7204;DHT22;3643;52.460;13.322;2023-09-18T08:59:36;24.90;99.90
7204;DHT22;3643;52.460;13.322;2023-09-18T09:02:05;25.00;99.90
7204;DHT22;3643;52.460;13.322;2023-09-18T09:04:33;25.10;99.90
7204;DHT22;3643;52.460;13.322;2023-09-18T09:07:03;25.30;99.90
7204;DHT22;3643;52.460;13.322;2023-09-18T09:09:31;25.40;99.90
7204;DHT22;3643;52.460;13.322;2023-09-18T09:12:00;25.40;99.90
7204;DHT22;3643;52.460;13.322;2023-09-18T09:14:29;25.60;99.90
7204;DHT22;3643;52.460;13.322;2023-09-18T09:16:58;25.80;99.90
7204;DHT22;3643;52.460;13.322;2023-09-18T09:19:30;25.90;99.90
7204;DHT22;3643;52.460;13.322;2023-09-18T09:21:59;26.10;99.90
7204;DHT22;3643;52.460;13.322;2023-09-18T09:24:39;26.30;99.90
7204;DHT22;3643;52.460;13.322;2023-09-18T09:27:09;26.50;99.90
7204;DHT22;3643;52.460;13.322;2023-09-18T09:29:39;26.50;99.90
7204;DHT22;3643;52.460;13.322;2023-09-18T09:32:15;26.60;99.90
7204;DHT22;3643;52.460;13.322;2023-09-18T09:34:44;26.60;99.90
7204;DHT22;3643;52.460;13.322;2023-09-18T09:37:13;26.60;99.90
7204;DHT22;3643;52.460;13.322;2023-09-18T09:39:48;26.70;99.90
7204;DHT22;3643;52.460;13.322;2023-09-18T09:42:20;26.80;99.90
7204;DHT22;3643;52.460;13.322;2023-09-18T09:45:02;26.90;99.90
7204;DHT22;3643;52.460;13.322;2023-09-18T09:47:34;26.80;99.90
7204;DHT22;3643;52.460;13.322;2023-09-18T09:50:07;27.00;99.90
7204;DHT22;3643;52.460;13.322;2023-09-18T09:52:41;26.90;99.90
7204;DHT22;3643;52.460;13.322;2023-09-18T09:55:22;26.80;99.90
7204;DHT22;3643;52.460;13.322;2023-09-18T09:57:53;26.80;99.90
7204;DHT22;3643;52.460;13.322;2023-09-18T10:00:25;26.80;99.90
7204;DHT22;3643;52.460;13.322;2023-09-18T10:03:00;26.80;99.90
7204;DHT22;3643;52.460;13.322;2023-09-18T10:05:30;26.70;99.90
7204;DHT22;3643;52.460;13.322;2023-09-18T10:08:02;26.60;99.90
7204;DHT22;3643;52.460;13.322;2023-09-18T10:10:33;26.70;99.90
7204;DHT22;3643;52.460;13.322;2023-09-18T10:13:10;26.70;99.90
7204;DHT22;3643;52.460;13.322;2023-09-18T10:15:40;26.90;99.90
7204;DHT22;3643;52.460;13.322;2023-09-18T10:18:27;27.10;99.90
7204;DHT22;3643;52.460;13.322;2023-09-18T10:21:00;27.20;99.90
7204;DHT22;3643;52.460;13.322;2023-09-18T10:23:44;27.40;99.90
7204;DHT22;3643;52.460;13.322;2023-09-18T10:26:18;27.20;99.90
7204;DHT22;3643;52.460;13.322;2023-09-18T10:28:53;27.20;99.90
7204;DHT22;3643;52.460;13.322;2023-09-18T10:31:26;26.90;99.90
7204;DHT22;3643;52.460;13.322;2023-09-18T10:33:56;26.70;99.90
7204;DHT22;3643;52.460;13.322;2023-09-18T10:36:25;26.80;99.90
7204;DHT22;3643;52.460;13.322;2023-09-18T10:38:55;27.00;99.90
7204;DHT22;3643;52.460;13.322;2023-09-18T10:41:26;27.10;99.90
7204;DHT22;3643;52.460;13.322;2023-09-18T10:43:56;27.00;99.90
7204;DHT22;3643;52.460;13.322;2023-09-18T10:46:26;27.10;99.90
7204;DHT22;3643;52.460;13.322;2023-09-18T10:48:55;26.90;99.90
7204;DHT22;3643;52.460;13.322;2023-09-18T10:51:24;26.90;99.90
7204;DHT22;3643;52.460;13.322;2023-09-18T10:53:52;26.60;99.90
7204;DHT22;3643;52.460;13.322;2023-09-18T10:56:21;26.50;99.90
7204;DHT22;3643;52.460;13.322;2023-09-18T10:58:58;26.60;99.90
7204;DHT22;3643;52.460;13.322;2023-09-18T11:01:28;26.80;99.90
7204;DHT22;3643;52.460;13.322;2023-09-18T11:04:00;27.00;99.90
7204;DHT22;3643;52.460;13.322;2023-09-18T11:06:29;27.20;99.90
7204;DHT22;3643;52.460;13.322;2023-09-18T11:09:03;27.20;99.90
7204;DHT22;3643;52.460;13.322;2023-09-18T11:11:31;26.80;99.90
7204;DHT22;3643;52.460;13.322;2023-09-18T11:14:10;26.70;99.90
7204;DHT22;3643;52.460;13.322;2023-09-18T11:16:39;26.80;99.90
7204;DHT22;3643;52.460;13.322;2023-09-18T11:19:09;26.70;99.90
7204;DHT22;3643;52.460;13.322;2023-09-18T11:21:39;26.70;99.90
7204;DHT22;3643;52.460;13.322;2023-09-18T11:24:14;25.50;99.90
7204;DHT22;3643;52.460;13.322;2023-09-18T11:26:46;26.80;99.90
7204;DHT22;3643;52.460;13.322;2023-09-18T11:29:23;26.70;99.90
7204;DHT22;3643;52.460;13.322;2023-09-18T11:31:56;26.70;99.90
7204;DHT22;3643;52.460;13.322;2023-09-18T11:34:32;26.70;99.90
7204;DHT22;3643;52.460;13.322;2023-09-18T11:37:02;26.60;99.90
7204;DHT22;3643;52.460;13.322;2023-09-18T11:39:46;26.40;99.90
7204;DHT22;3643;52.460;13.322;2023-09-18T11:42:17;26.30;99.90
7204;DHT22;3643;52.460;13.322;2023-09-18T11:44:50;26.00;99.90
7204;DHT22;3643;52.460;13.322;2023-09-18T11:47:19;26.00;99.90
7204;DHT22;3643;52.460;13.322;2023-09-18T11:49:52;25.80;99.90
7204;DHT22;3643;52.460;13.322;2023-09-18T11:52:27;25.70;99.90
7204;DHT22;3643;52.460;13.322;2023-09-18T11:54:56;25.70;99.90
7204;DHT22;3643;52.460;13.322;2023-09-18T11:57:25;25.70;99.90
7204;DHT22;3643;52.460;13.322;2023-09-18T11:59:57;25.80;99.90
7204;DHT22;3643;52.460;13.322;2023-09-18T12:02:38;25.70;99.90
7204;DHT22;3643;52.460;13.322;2023-09-18T12:05:10;25.80;99.90
7204;DHT22;3643;52.460;13.322;2023-09-18T12:07:39;26.10;99.90
7204;DHT22;3643;52.460;13.322;2023-09-18T12:10:11;26.30;99.90
7204;DHT22;3643;52.460;13.322;2023-09-18T12:12:39;26.50;99.90
7204;DHT22;3643;52.460;13.322;2023-09-18T12:15:11;26.80;99.90
7204;DHT22;3643;52.460;13.322;2023-09-18T12:17:39;27.00;99.90
7204;DHT22;3643;52.460;13.322;2023-09-18T12:20:14;27.10;99.90
7204;DHT22;3643;52.460;13.322;2023-09-18T12:22:47;27.20;99.90
7204;DHT22;3643;52.460;13.322;2023-09-18T12:25:16;27.00;99.90
7204;DHT22;3643;52.460;13.322;2023-09-18T12:27:45;26.80;99.90
7204;DHT22;3643;52.460;13.322;2023-09-18T12:30:15;26.80;99.90
7204;DHT22;3643;52.460;13.322;2023-09-18T12:32:48;26.50;99.90
7204;DHT22;3643;52.460;13.322;2023-09-18T12:35:17;26.50;99.90
7204;DHT22;3643;52.460;13.322;2023-09-18T12:37:46;26.30;99.90
7204;DHT22;3643;52.460;13.322;2023-09-18T12:40:33;26.40;99.90
7204;DHT22;3643;52.460;13.322;2023-09-18T12:43:02;26.40;99.90
7204;DHT22;3643;52.460;13.322;2023-09-18T12:45:34;26.30;99.90
7204;DHT22;3643;52.460;13.322;2023-09-18T12:48:03;26.10;99.90
7204;DHT22;3643;52.460;13.322;2023-09-18T12:50:32;26.00;99.90
7204;DHT22;3643;52.460;13.322;2023-09-18T12:53:09;25.90;99.90
7204;DHT22;3643;52.460;13.322;2023-09-18T12:55:39;25.90;99.90
7204;DHT22;3643;52.460;13.322;2023-09-18T12:58:10;25.80;99.90
7204;DHT22;3643;52.460;13.322;2023-09-18T13:00:47;25.80;99.90
7204;DHT22;3643;52.460;13.322;2023-09-18T13:03:16;25.80;99.90
7204;DHT22;3643;52.460;13.322;2023-09-18T13:05:45;25.70;99.90
7204;DHT22;3643;52.460;13.322;2023-09-18T13:08:15;25.60;99.90
7204;DHT22;3643;52.460;13.322;2023-09-18T13:10:44;25.50;99.90
7204;DHT22;3643;52.460;13.322;2023-09-18T13:13:17;25.40;99.90
7204;DHT22;3643;52.460;13.322;2023-09-18T13:15:48;25.30;99.90
7204;DHT22;3643;52.460;13.322;2023-09-18T13:18:22;25.10;99.90
7204;DHT22;3643;52.460;13.322;2023-09-18T13:20:51;25.10;99.90
7204;DHT22;3643;52.460;13.322;2023-09-18T13:23:21;25.10;99.90
7204;DHT22;3643;52.460;13.322;2023-09-18T13:26:00;25.10;99.90
7204;DHT22;3643;52.460;13.322;2023-09-18T13:28:30;25.10;99.90
7204;DHT22;3643;52.460;13.322;2023-09-18T13:31:03;25.00;99.90
7204;DHT22;3643;52.460;13.322;2023-09-18T13:33:38;24.90;99.90
7204;DHT22;3643;52.460;13.322;2023-09-18T13:36:08;24.90;99.90
7204;DHT22;3643;52.460;13.322;2023-09-18T13:38:36;24.80;99.90
7204;DHT22;3643;52.460;13.322;2023-09-18T13:41:05;24.70;99.90
7204;DHT22;3643;52.460;13.322;2023-09-18T13:43:34;24.50;99.90
7204;DHT22;3643;52.460;13.322;2023-09-18T13:46:05;24.30;99.90
7204;DHT22;3643;52.460;13.322;2023-09-18T13:48:34;24.00;99.90
7204;DHT22;3643;52.460;13.322;2023-09-18T13:51:03;23.80;99.90
7204;DHT22;3643;52.460;13.322;2023-09-18T13:53:32;23.70;99.90
7204;DHT22;3643;52.460;13.322;2023-09-18T13:56:02;23.70;99.90
7204;DHT22;3643;52.460;13.322;2023-09-18T13:58:30;23.60;99.90
7204;DHT22;3643;52.460;13.322;2023-09-18T14:00:59;23.80;99.90
7204;DHT22;3643;52.460;13.322;2023-09-18T14:03:29;23.80;99.90
7204;DHT22;3643;52.460;13.322;2023-09-18T14:06:02;23.90;99.90
7204;DHT22;3643;52.460;13.322;2023-09-18T14:08:32;24.00;99.90
7204;DHT22;3643;52.460;13.322;2023-09-18T14:11:01;24.10;99.90
7204;DHT22;3643;52.460;13.322;2023-09-18T14:13:31;24.30;99.90
7204;DHT22;3643;52.460;13.322;2023-09-18T14:16:01;24.30;99.90
7204;DHT22;3643;52.460;13.322;2023-09-18T14:18:32;24.30;99.90
7204;DHT22;3643;52.460;13.322;2023-09-18T14:21:00;24.20;99.90
7204;DHT22;3643;52.460;13.322;2023-09-18T14:23:28;24.30;99.90
7204;DHT22;3643;52.460;13.322;2023-09-18T14:25:57;24.30;99.90
7204;DHT22;3643;52.460;13.322;2023-09-18T14:28:27;24.40;99.90
7204;DHT22;3643;52.460;13.322;2023-09-18T14:30:56;24.30;99.90
7204;DHT22;3643;52.460;13.322;2023-09-18T14:33:25;24.30;99.90
7204;DHT22;3643;52.460;13.322;2023-09-18T14:35:55;24.10;99.90
7204;DHT22;3643;52.460;13.322;2023-09-18T14:38:24;24.00;99.90
7204;DHT22;3643;52.460;13.322;2023-09-18T14:40:52;23.80;99.90
7204;DHT22;3643;52.460;13.322;2023-09-18T14:43:27;23.80;99.90
7204;DHT22;3643;52.460;13.322;2023-09-18T14:45:56;23.80;99.90
7204;DHT22;3643;52.460;13.322;2023-09-18T14:48:25;23.60;99.90
7204;DHT22;3643;52.460;13.322;2023-09-18T14:50:57;23.70;99.90
7204;DHT22;3643;52.460;13.322;2023-09-18T14:53:26;23.60;99.90
7204;DHT22;3643;52.460;13.322;2023-09-18T14:55:54;23.70;99.90
7204;DHT22;3643;52.460;13.322;2023-09-18T14:58:23;23.80;99.90
7204;DHT22;3643;52.460;13.322;2023-09-18T15:00:53;23.90;99.90
7204;DHT22;3643;52.460;13.322;2023-09-18T15:03:21;23.90;99.90
7204;DHT22;3643;52.460;13.322;2023-09-18T15:05:52;23.90;99.90
7204;DHT22;3643;52.460;13.322;2023-09-18T15:08:24;24.00;99.90
7204;DHT22;3643;52.460;13.322;2023-09-18T15:10:52;24.00;99.90
7204;DHT22;3643;52.460;13.322;2023-09-18T15:13:21;24.00;99.90
7204;DHT22;3643;52.460;13.322;2023-09-18T15:15:51;24.00;99.90
7204;DHT22;3643;52.460;13.322;2023-09-18T15:18:19;24.00;99.90
7204;DHT22;3643;52.460;13.322;2023-09-18T15:20:48;24.00;99.90
7204;DHT22;3643;52.460;13.322;2023-09-18T15:23:21;24.00;99.90
7204;DHT22;3643;52.460;13.322;2023-09-18T15:25:52;23.90;99.90
7204;DHT22;3643;52.460;13.322;2023-09-18T15:28:22;23.80;99.90
7204;DHT22;3643;52.460;13.322;2023-09-18T15:30:52;23.80;99.90
7204;DHT22;3643;52.460;13.322;2023-09-18T15:33:20;23.80;99.90
7204;DHT22;3643;52.460;13.322;2023-09-18T15:35:49;23.70;99.90
7204;DHT22;3643;52.460;13.322;2023-09-18T15:38:19;23.80;99.90
7204;DHT22;3643;52.460;13.322;2023-09-18T15:40:49;23.70;99.90
7204;DHT22;3643;52.460;13.322;2023-09-18T15:43:19;23.60;99.90
7204;DHT22;3643;52.460;13.322;2023-09-18T15:45:49;23.50;99.90
7204;DHT22;3643;52.460;13.322;2023-09-18T15:48:18;23.50;99.90
7204;DHT22;3643;52.460;13.322;2023-09-18T15:50:47;23.50;99.90
7204;DHT22;3643;52.460;13.322;2023-09-18T15:53:16;23.40;99.90
7204;DHT22;3643;52.460;13.322;2023-09-18T15:55:44;23.40;99.90
7204;DHT22;3643;52.460;13.322;2023-09-18T15:58:13;23.30;99.90
7204;DHT22;3643;52.460;13.322;2023-09-18T16:00:45;23.30;99.90
7204;DHT22;3643;52.460;13.322;2023-09-18T16:03:15;23.20;99.90